createdAt,value
2022-11-20T00:01:27.736Z,1.70
2022-11-20T00:03:55.775Z,1.80
2022-11-20T00:06:23.706Z,1.90
2022-11-20T00:08:51.854Z,2.10
2022-11-20T00:11:21.740Z,1.85
2022-11-20T00:13:50.919Z,1.50
2022-11-20T00:16:20.420Z,1.80
2022-11-20T00:18:47.459Z,2.17
2022-11-20T00:21:16.192Z,1.60
2022-11-20T00:23:42.983Z,1.88
2022-11-20T00:26:17.126Z,1.77
2022-11-20T00:28:45.447Z,1.52
2022-11-20T00:31:16.407Z,1.77
2022-11-20T00:33:44.392Z,1.48
2022-11-20T00:36:13.671Z,1.80
2022-11-20T00:38:40.435Z,1.40
2022-11-20T00:41:09.783Z,1.80
2022-11-20T00:43:37.370Z,1.80
2022-11-20T00:46:07.030Z,1.85
2022-11-20T00:48:33.511Z,1.55
2022-11-20T00:51:00.452Z,1.48
2022-11-20T00:53:27.284Z,2.10
2022-11-20T00:56:05.545Z,1.30
2022-11-20T00:58:34.684Z,1.85
2022-11-20T01:01:11.704Z,2.00
2022-11-20T01:03:43.357Z,1.52
2022-11-20T01:06:14.200Z,1.50
2022-11-20T01:08:41.200Z,1.70
2022-11-20T01:11:14.441Z,1.70
2022-11-20T01:16:17.800Z,1.42
2022-11-20T01:18:46.603Z,1.50
2022-11-20T01:21:18.354Z,1.27
2022-11-20T01:23:46.147Z,1.33
2022-11-20T01:26:15.229Z,1.55
2022-11-20T01:28:42.224Z,1.52
2022-11-20T01:31:20.266Z,1.30
2022-11-20T01:33:48.735Z,1.55
2022-11-20T01:36:16.430Z,1.27
2022-11-20T01:38:43.507Z,1.70
2022-11-20T01:41:11.595Z,1.35
2022-11-20T01:43:38.082Z,1.23
2022-11-20T01:46:04.480Z,1.50
2022-11-20T01:48:38.891Z,1.10
2022-11-20T01:51:13.353Z,1.50
2022-11-20T01:53:40.003Z,1.08
2022-11-20T01:56:11.104Z,1.00
2022-11-20T01:58:43.634Z,1.52
2022-11-20T02:01:10.423Z,1.25
2022-11-20T02:03:37.498Z,1.33
2022-11-20T02:06:07.924Z,1.38
2022-11-20T02:08:35.977Z,1.20
2022-11-20T02:11:02.435Z,1.45
2022-11-20T02:13:44.048Z,1.55
2022-11-20T02:16:15.543Z,1.40
2022-11-20T02:18:43.659Z,1.17
2022-11-20T02:21:24.272Z,1.10
2022-11-20T02:23:57.312Z,1.40
2022-11-20T02:26:24.895Z,1.10
2022-11-20T02:28:51.715Z,1.70
2022-11-20T02:31:18.168Z,1.10
2022-11-20T02:33:44.604Z,1.30
2022-11-20T02:36:15.709Z,1.10
2022-11-20T02:38:44.108Z,1.63
2022-11-20T02:41:10.536Z,1.40
2022-11-20T02:43:36.983Z,1.00
2022-11-20T02:46:03.438Z,1.00
2022-11-20T02:48:33.700Z,1.08
2022-11-20T02:51:00.581Z,1.25
2022-11-20T02:53:27.032Z,1.00
2022-11-20T02:55:53.599Z,0.90
2022-11-20T02:58:20.026Z,0.90
2022-11-20T03:00:46.528Z,1.40
2022-11-20T03:03:12.967Z,1.10
2022-11-20T03:05:39.412Z,0.98
2022-11-20T03:08:05.868Z,1.00
2022-11-20T03:10:32.304Z,1.20
2022-11-20T03:12:58.740Z,0.90
2022-11-20T03:15:25.267Z,0.95
2022-11-20T03:17:56.093Z,1.15
2022-11-20T03:20:23.008Z,1.10
2022-11-20T03:22:49.452Z,0.82
2022-11-20T03:25:15.968Z,0.82
2022-11-20T03:27:42.394Z,1.27
2022-11-20T03:30:09.475Z,1.08
2022-11-20T03:32:35.805Z,1.13
2022-11-20T03:35:02.164Z,0.80
2022-11-20T03:37:28.636Z,1.00
2022-11-20T03:39:55.066Z,0.82
2022-11-20T03:42:40.194Z,1.23
2022-11-20T03:45:07.000Z,0.98
2022-11-20T03:47:33.456Z,0.75
2022-11-20T03:49:59.900Z,0.98
2022-11-20T03:52:26.348Z,0.93
2022-11-20T03:54:52.782Z,0.80
2022-11-20T03:57:20.347Z,0.77
2022-11-20T03:59:46.803Z,0.90
2022-11-20T04:02:13.300Z,1.00
2022-11-20T04:04:39.752Z,0.93
2022-11-20T04:07:06.285Z,0.90
2022-11-20T04:09:32.775Z,0.80
2022-11-20T04:11:59.238Z,0.80
2022-11-20T04:14:25.814Z,0.90
2022-11-20T04:16:52.330Z,0.80
2022-11-20T04:19:19.327Z,0.95
2022-11-20T04:21:46.453Z,0.90
2022-11-20T04:24:13.285Z,0.70
2022-11-20T04:26:39.978Z,0.95
2022-11-20T04:29:06.647Z,0.60
2022-11-20T04:31:35.523Z,0.90
2022-11-20T04:34:04.735Z,0.63
2022-11-20T04:36:32.176Z,0.98
2022-11-20T04:39:07.052Z,0.80
2022-11-20T04:41:36.411Z,0.80
2022-11-20T04:44:05.237Z,0.80
2022-11-20T04:46:38.299Z,0.73
2022-11-20T04:49:04.939Z,0.85
2022-11-20T04:51:31.496Z,0.65
2022-11-20T04:53:58.096Z,0.60
2022-11-20T04:56:24.620Z,0.65
2022-11-20T04:58:51.716Z,0.90
2022-11-20T05:01:21.167Z,0.50
2022-11-20T05:03:47.986Z,0.88
2022-11-20T05:06:16.532Z,0.60
2022-11-20T05:08:43.345Z,0.73
2022-11-20T05:11:12.553Z,0.93
2022-11-20T05:13:39.882Z,1.00
2022-11-20T05:16:11.813Z,0.80
2022-11-20T05:18:39.427Z,0.80
2022-11-20T05:23:33.484Z,0.60
2022-11-20T05:28:29.056Z,0.70
2022-11-20T05:30:55.735Z,0.70
2022-11-20T05:33:22.568Z,0.50
2022-11-20T05:35:49.573Z,0.68
2022-11-20T05:38:16.463Z,0.50
2022-11-20T05:40:42.922Z,0.43
2022-11-20T05:43:09.390Z,0.68
2022-11-20T05:45:36.104Z,0.60
2022-11-20T05:48:02.706Z,0.90
2022-11-20T05:50:29.446Z,0.70
2022-11-20T05:52:55.995Z,0.70
2022-11-20T05:55:22.647Z,0.82
2022-11-20T05:57:49.079Z,1.00
2022-11-20T06:00:16.066Z,0.60
2022-11-20T06:02:42.849Z,0.73
2022-11-20T06:05:09.447Z,0.50
2022-11-20T06:07:35.928Z,1.00
2022-11-20T06:10:02.743Z,0.88
2022-11-20T06:12:29.192Z,0.63
2022-11-20T06:14:55.680Z,0.80
2022-11-20T06:17:22.137Z,0.70
2022-11-20T06:19:48.774Z,0.60
2022-11-20T06:22:15.447Z,0.80
2022-11-20T06:24:41.875Z,0.70
2022-11-20T06:27:08.311Z,0.60
2022-11-20T06:29:34.827Z,0.73
2022-11-20T06:32:02.044Z,1.08
2022-11-20T06:34:28.501Z,0.75
2022-11-20T06:36:54.958Z,0.73
2022-11-20T06:39:21.709Z,1.13
2022-11-20T06:41:48.357Z,1.08
2022-11-20T06:44:14.794Z,0.90
2022-11-20T06:46:41.207Z,0.85
2022-11-20T06:49:07.643Z,0.82
2022-11-20T06:51:34.188Z,1.10
2022-11-20T06:54:01.931Z,1.10
2022-11-20T06:56:29.054Z,1.13
2022-11-20T06:58:55.515Z,0.80
2022-11-20T07:01:22.046Z,1.00
2022-11-20T07:03:54.276Z,0.82
2022-11-20T07:06:21.384Z,0.98
2022-11-20T07:08:48.076Z,0.82
2022-11-20T07:11:14.891Z,1.20
2022-11-20T07:13:41.405Z,0.80
2022-11-20T07:16:09.183Z,0.85
2022-11-20T07:18:37.153Z,0.85
2022-11-20T07:21:04.998Z,1.25
2022-11-20T07:23:32.039Z,0.93
2022-11-20T07:25:58.667Z,0.90
2022-11-20T07:28:25.183Z,1.00
2022-11-20T07:30:52.868Z,0.77
2022-11-20T07:33:19.781Z,1.17
2022-11-20T07:35:46.424Z,1.00
2022-11-20T07:38:12.942Z,1.60
2022-11-20T07:40:39.507Z,1.38
2022-11-20T07:43:05.955Z,1.20
2022-11-20T07:45:32.408Z,1.70
2022-11-20T07:47:58.860Z,1.33
2022-11-20T07:50:25.506Z,4.72
2022-11-20T07:52:51.993Z,5.05
2022-11-20T07:55:18.447Z,5.10
2022-11-20T07:57:44.922Z,8.48
2022-11-20T08:00:12.958Z,9.13
2022-11-20T08:02:40.731Z,11.45
2022-11-20T08:05:08.616Z,11.57
2022-11-20T08:07:39.800Z,12.52
2022-11-20T08:10:07.845Z,12.38
2022-11-20T08:12:53.132Z,11.50
2022-11-20T08:15:19.592Z,12.23
2022-11-20T08:18:01.946Z,10.48
2022-11-20T08:20:32.908Z,12.27
2022-11-20T08:23:04.398Z,12.98
2022-11-20T08:25:30.946Z,12.85
2022-11-20T08:28:08.960Z,13.20
2022-11-20T08:30:42.295Z,13.57
2022-11-20T08:33:10.268Z,10.88
2022-11-20T08:35:37.848Z,12.70
2022-11-20T08:38:05.719Z,14.18
2022-11-20T08:40:32.960Z,12.30
2022-11-20T08:42:59.603Z,11.00
2022-11-20T08:45:30.945Z,10.45
2022-11-20T08:48:04.304Z,10.20
2022-11-20T08:50:33.126Z,10.45
2022-11-20T08:53:09.079Z,10.63
2022-11-20T08:55:38.135Z,9.85
2022-11-20T08:58:05.768Z,10.07
2022-11-20T09:00:33.501Z,9.25
2022-11-20T09:03:01.865Z,9.38
2022-11-20T09:05:28.599Z,9.90
2022-11-20T09:07:59.291Z,9.15
2022-11-20T09:10:26.452Z,9.35
2022-11-20T09:12:53.822Z,8.20
2022-11-20T09:17:54.627Z,8.13
2022-11-20T09:20:21.530Z,8.45
2022-11-20T09:22:48.420Z,8.45
2022-11-20T09:25:15.071Z,7.28
2022-11-20T09:27:44.640Z,7.63
2022-11-20T09:30:11.914Z,8.50
2022-11-20T09:32:40.194Z,8.18
2022-11-20T09:35:07.004Z,7.63
2022-11-20T09:37:33.466Z,8.30
2022-11-20T09:39:59.915Z,7.15
2022-11-20T09:42:48.583Z,6.97
2022-11-20T09:45:18.004Z,6.97
2022-11-20T09:48:02.936Z,6.80
2022-11-20T09:50:48.831Z,6.97
2022-11-20T09:53:35.961Z,7.45
2022-11-20T09:56:05.727Z,6.20
2022-11-20T09:58:42.818Z,6.22
2022-11-20T10:01:15.389Z,6.60
2022-11-20T10:04:20.284Z,6.15
2022-11-20T10:07:30.241Z,6.72
2022-11-20T10:09:57.706Z,5.25
2022-11-20T10:12:50.075Z,6.43
2022-11-20T10:15:38.182Z,6.80
2022-11-20T10:18:04.579Z,6.10
2022-11-20T10:20:42.448Z,6.60
2022-11-20T10:23:08.870Z,6.60
2022-11-20T10:25:40.314Z,6.43
2022-11-20T10:28:34.700Z,5.80
2022-11-20T10:31:09.532Z,6.15
2022-11-20T10:34:05.009Z,5.90
2022-11-20T10:36:44.421Z,6.03
2022-11-20T10:39:26.833Z,5.75
2022-11-20T10:41:54.757Z,5.28
2022-11-20T10:44:42.022Z,5.05
2022-11-20T10:47:15.423Z,5.53
2022-11-20T10:52:20.168Z,5.38
2022-11-20T10:55:27.991Z,4.93
2022-11-20T10:58:34.239Z,5.22
2022-11-20T11:01:28.039Z,5.10
2022-11-20T11:03:56.486Z,5.35
2022-11-20T11:06:29.031Z,5.20
2022-11-20T11:08:59.716Z,4.65
2022-11-20T11:11:30.160Z,4.78
2022-11-20T11:14:11.643Z,4.30
2022-11-20T11:16:52.213Z,5.07
2022-11-20T11:19:18.815Z,4.97
2022-11-20T11:21:55.797Z,4.40
2022-11-20T11:24:42.402Z,5.22
2022-11-20T11:27:18.500Z,4.50
2022-11-20T11:29:46.505Z,5.22
2022-11-20T11:32:19.731Z,4.80
2022-11-20T11:34:46.230Z,4.78
2022-11-20T11:37:25.220Z,4.68
2022-11-20T11:40:16.410Z,4.47
2022-11-20T11:42:44.400Z,4.25
2022-11-20T11:45:18.314Z,4.32
2022-11-20T11:47:48.338Z,4.28
2022-11-20T11:50:23.509Z,4.20
2022-11-20T11:53:17.580Z,4.50
2022-11-20T11:55:57.136Z,4.22
2022-11-20T11:58:45.571Z,3.95
2022-11-20T12:01:50.232Z,3.65
2022-11-20T12:04:38.648Z,4.10
2022-11-20T12:07:44.106Z,3.63
2022-11-20T12:10:02.571Z,3.72
2022-11-20T12:12:43.761Z,3.45
2022-11-20T12:15:21.383Z,4.22
2022-11-20T12:17:47.816Z,3.85
2022-11-20T12:20:15.779Z,3.40
2022-11-20T12:22:56.347Z,3.45
2022-11-20T12:25:28.368Z,3.15
2022-11-20T12:28:34.544Z,3.28
2022-11-20T12:31:32.161Z,3.38
2022-11-20T12:34:19.823Z,3.10
2022-11-20T12:36:59.108Z,3.30
2022-11-20T12:39:31.632Z,2.90
2022-11-20T12:42:36.140Z,3.65
2022-11-20T12:45:39.944Z,3.50
2022-11-20T12:51:08.131Z,3.45
2022-11-20T12:53:40.641Z,3.60
2022-11-20T12:56:28.924Z,3.47
2022-11-20T12:59:10.364Z,3.50
2022-11-20T13:01:48.611Z,3.20
2022-11-20T13:04:59.373Z,3.55
2022-11-20T13:07:29.095Z,3.08
2022-11-20T13:09:55.929Z,3.00
2022-11-20T13:12:31.119Z,2.80
2022-11-20T13:15:38.083Z,3.10
2022-11-20T13:18:09.421Z,2.90
2022-11-20T13:20:37.259Z,3.42
2022-11-20T13:23:03.739Z,3.63
2022-11-20T13:25:34.087Z,2.55
2022-11-20T13:28:05.255Z,2.95
2022-11-20T13:30:32.830Z,2.85
2022-11-20T13:33:23.755Z,2.67
2022-11-20T13:36:07.903Z,3.10
2022-11-20T13:38:51.606Z,2.72
2022-11-20T13:41:54.698Z,2.88
2022-11-20T13:44:40.674Z,2.97
2022-11-20T13:47:22.404Z,3.00
2022-11-20T13:49:52.075Z,2.42
2022-11-20T13:52:43.199Z,2.70
2022-11-20T13:55:20.665Z,2.65
2022-11-20T13:57:56.356Z,2.83
2022-11-20T14:00:25.516Z,2.83
2022-11-20T14:03:03.478Z,2.50
2022-11-20T14:05:35.772Z,3.08
2022-11-20T14:08:06.606Z,2.63
2022-11-20T14:10:33.175Z,2.28
2022-11-20T14:13:10.470Z,2.28
2022-11-20T14:15:41.855Z,2.55
2022-11-20T14:18:22.791Z,2.78
2022-11-20T14:20:49.491Z,2.60
2022-11-20T14:23:30.247Z,2.08
2022-11-20T14:25:57.138Z,2.45
2022-11-20T14:28:29.449Z,2.38
2022-11-20T14:30:56.495Z,2.70
2022-11-20T14:33:25.866Z,2.10
2022-11-20T14:35:57.300Z,2.10
2022-11-20T14:38:29.703Z,1.88
2022-11-20T14:41:07.316Z,1.98
2022-11-20T14:43:36.888Z,2.10
2022-11-20T14:46:06.698Z,2.20
2022-11-20T14:48:43.238Z,2.10
2022-11-20T14:51:24.678Z,3.85
2022-11-20T14:53:52.015Z,3.05
2022-11-20T14:58:57.617Z,2.30
2022-11-20T15:01:32.505Z,2.38
2022-11-20T15:04:07.249Z,2.90
2022-11-20T15:06:34.011Z,2.42
2022-11-20T15:09:00.523Z,2.50
2022-11-20T15:11:31.505Z,3.03
2022-11-20T15:13:59.224Z,2.75
2022-11-20T15:16:27.781Z,2.58
2022-11-20T15:18:54.968Z,2.90
2022-11-20T15:21:22.129Z,2.35
2022-11-20T15:23:49.135Z,2.80
2022-11-20T15:26:22.055Z,2.03
2022-11-20T15:28:51.058Z,2.20
2022-11-20T15:31:20.778Z,2.35
2022-11-20T15:33:47.596Z,2.10
2022-11-20T15:36:14.135Z,2.42
2022-11-20T15:38:40.697Z,2.33
2022-11-20T15:41:07.927Z,2.05
2022-11-20T15:43:34.383Z,1.92
2022-11-20T15:46:16.428Z,2.25
2022-11-20T15:48:48.150Z,2.13
2022-11-20T15:51:28.963Z,1.88
2022-11-20T15:53:56.643Z,1.90
2022-11-20T15:56:23.857Z,1.92
2022-11-20T15:58:50.321Z,1.85
2022-11-20T16:01:19.928Z,2.05
2022-11-20T16:03:46.595Z,2.05
2022-11-20T16:06:13.103Z,1.98
2022-11-20T16:08:40.039Z,1.83
2022-11-20T16:11:06.482Z,2.08
2022-11-20T16:13:51.972Z,1.60
2022-11-20T16:18:50.627Z,1.70
2022-11-20T16:21:17.159Z,2.05
2022-11-20T16:23:44.054Z,2.10
2022-11-20T16:26:16.791Z,2.22
2022-11-20T16:28:43.642Z,2.45
2022-11-20T16:31:12.398Z,2.30
2022-11-20T16:33:38.895Z,2.30
2022-11-20T16:36:13.684Z,2.15
2022-11-20T16:38:40.955Z,1.85
2022-11-20T16:43:33.991Z,2.10
2022-11-20T16:46:04.507Z,1.92
2022-11-20T16:48:30.946Z,2.35
2022-11-20T16:50:57.420Z,1.90
2022-11-20T16:53:23.998Z,2.03
2022-11-20T16:55:50.484Z,2.00
2022-11-20T16:58:17.023Z,1.95
2022-11-20T17:00:50.060Z,2.10
2022-11-20T17:03:18.221Z,2.17
2022-11-20T17:05:44.707Z,2.15
2022-11-20T17:08:11.157Z,2.55
2022-11-20T17:10:37.596Z,2.00
2022-11-20T17:13:04.085Z,1.95
2022-11-20T17:15:31.481Z,2.20
2022-11-20T17:17:57.939Z,2.30
2022-11-20T17:20:24.389Z,2.33
2022-11-20T17:22:50.840Z,2.17
2022-11-20T17:25:17.385Z,2.13
2022-11-20T17:27:43.851Z,2.72
2022-11-20T17:30:10.477Z,2.20
2022-11-20T17:32:37.018Z,2.33
2022-11-20T17:35:03.587Z,1.90
2022-11-20T17:37:30.034Z,2.35
2022-11-20T17:39:56.532Z,2.22
2022-11-20T17:42:29.668Z,2.25
2022-11-20T17:44:58.733Z,1.80
2022-11-20T17:47:25.940Z,2.40
2022-11-20T17:49:53.584Z,3.05
2022-11-20T17:52:20.403Z,1.95
2022-11-20T17:54:46.927Z,2.28
2022-11-20T17:57:31.587Z,1.90
2022-11-20T17:59:58.014Z,2.15
2022-11-20T18:02:25.040Z,2.20
2022-11-20T18:04:51.492Z,2.20
2022-11-20T18:07:17.986Z,1.65
2022-11-20T18:09:44.455Z,2.05
2022-11-20T18:12:10.939Z,2.35
2022-11-20T18:14:37.423Z,2.05
2022-11-20T18:17:05.911Z,1.92
2022-11-20T18:19:40.283Z,2.03
2022-11-20T18:22:12.948Z,1.95
2022-11-20T18:24:39.977Z,2.25
2022-11-20T18:27:09.384Z,2.35
2022-11-20T18:29:35.832Z,2.25
2022-11-20T18:32:02.624Z,2.20
2022-11-20T18:34:29.255Z,2.30
2022-11-20T18:36:55.851Z,1.90
2022-11-20T18:39:23.586Z,2.05
2022-11-20T18:42:08.640Z,2.10
2022-11-20T18:44:54.783Z,2.35
2022-11-20T18:47:30.801Z,2.30
2022-11-20T18:50:01.285Z,2.70
2022-11-20T18:52:34.039Z,2.13
2022-11-20T18:55:02.399Z,2.40
2022-11-20T18:57:30.035Z,2.35
2022-11-20T19:00:06.450Z,2.20
2022-11-20T19:02:41.009Z,2.30
2022-11-20T19:05:09.203Z,2.50
2022-11-20T19:07:35.725Z,2.50
2022-11-20T19:10:04.146Z,2.60
2022-11-20T19:12:31.487Z,2.00
2022-11-20T19:14:58.015Z,2.20
2022-11-20T19:17:24.578Z,2.65
2022-11-20T19:19:51.147Z,2.22
2022-11-20T19:22:17.683Z,2.67
2022-11-20T19:24:44.158Z,2.10
2022-11-20T19:27:10.669Z,2.15
2022-11-20T19:29:37.122Z,2.22
2022-11-20T19:32:04.505Z,2.53
2022-11-20T19:34:31.743Z,2.33
2022-11-20T19:36:58.828Z,2.40
2022-11-20T19:39:25.498Z,2.55
2022-11-20T19:41:52.196Z,3.05
2022-11-20T19:44:19.409Z,2.40
2022-11-20T19:46:45.883Z,2.83
2022-11-20T19:49:13.960Z,2.50
2022-11-20T19:51:45.775Z,2.67
2022-11-20T19:54:12.710Z,2.72
2022-11-20T19:56:39.186Z,2.22
2022-11-20T19:59:05.750Z,2.28
2022-11-20T20:01:32.369Z,2.60
2022-11-20T20:04:05.372Z,2.40
2022-11-20T20:06:34.600Z,2.17
2022-11-20T20:09:08.150Z,2.20
2022-11-20T20:11:35.775Z,2.67
2022-11-20T20:14:04.122Z,2.47
2022-11-20T20:16:30.764Z,2.22
2022-11-20T20:19:02.389Z,2.75
2022-11-20T20:21:32.888Z,2.15
2022-11-20T20:23:59.772Z,2.65
2022-11-20T20:26:28.997Z,2.40
2022-11-20T20:28:55.976Z,2.60
2022-11-20T20:31:25.493Z,2.72
2022-11-20T20:33:52.168Z,2.65
2022-11-20T20:36:20.475Z,2.53
2022-11-20T20:38:47.561Z,2.45
2022-11-20T20:41:14.859Z,2.80
2022-11-20T20:46:26.419Z,2.83
2022-11-20T20:48:54.913Z,2.60
2022-11-20T20:51:22.704Z,2.92
2022-11-20T20:53:49.648Z,2.88
2022-11-20T20:56:17.223Z,2.85
2022-11-20T20:58:43.921Z,3.35
2022-11-20T21:01:13.387Z,2.50
2022-11-20T21:03:39.895Z,2.78
2022-11-20T21:06:07.689Z,2.85
2022-11-20T21:08:36.073Z,2.75
2022-11-20T21:11:09.747Z,2.97
2022-11-20T21:13:37.434Z,3.00
2022-11-20T21:16:04.807Z,2.65
2022-11-20T21:18:32.256Z,2.75
2022-11-20T21:21:17.727Z,3.10
2022-11-20T21:26:16.050Z,2.40
2022-11-20T21:28:42.783Z,2.50
2022-11-20T21:31:12.036Z,2.67
2022-11-20T21:33:43.688Z,2.35
2022-11-20T21:36:12.016Z,2.50
2022-11-20T21:38:38.475Z,2.40
2022-11-20T21:41:07.017Z,2.50
2022-11-20T21:43:33.576Z,2.72
2022-11-20T21:46:08.004Z,2.05
2022-11-20T21:48:36.595Z,2.20
2022-11-20T21:51:07.687Z,2.22
2022-11-20T21:53:34.463Z,2.80
2022-11-20T21:56:01.316Z,2.22
2022-11-20T21:58:28.242Z,2.40
2022-11-20T22:00:54.791Z,2.67
2022-11-20T22:03:21.244Z,2.45
2022-11-20T22:05:57.810Z,2.58
2022-11-20T22:08:25.388Z,2.30
2022-11-20T22:10:55.882Z,2.45
2022-11-20T22:13:41.847Z,2.30
2022-11-20T22:16:08.737Z,2.97
2022-11-20T22:18:35.385Z,2.25
2022-11-20T22:21:07.048Z,2.25
2022-11-20T22:23:34.527Z,2.20
2022-11-20T22:26:10.052Z,2.00
2022-11-20T22:28:36.752Z,2.00
2022-11-20T22:31:05.296Z,2.50
2022-11-20T22:33:32.716Z,2.25
2022-11-20T22:36:01.376Z,2.15
2022-11-20T22:38:29.735Z,2.13
2022-11-20T22:41:06.090Z,2.05
2022-11-20T22:43:32.889Z,2.13
2022-11-20T22:46:19.640Z,1.90
2022-11-20T22:48:50.418Z,1.90
2022-11-20T22:51:18.706Z,1.90
2022-11-20T22:53:45.368Z,2.08
2022-11-20T22:56:13.515Z,2.05
2022-11-20T22:58:42.528Z,1.85
2022-11-20T23:01:16.063Z,1.88
2022-11-20T23:03:44.993Z,2.22
2022-11-20T23:06:12.271Z,2.10
2022-11-20T23:08:40.152Z,2.03
2022-11-20T23:11:09.471Z,1.90
2022-11-20T23:13:36.551Z,1.90
2022-11-20T23:16:09.947Z,1.95
2022-11-20T23:21:10.960Z,1.80
2022-11-20T23:23:37.751Z,1.92
2022-11-20T23:26:07.151Z,2.28
2022-11-20T23:28:34.190Z,1.88
2022-11-20T23:31:01.059Z,2.10
2022-11-20T23:33:27.614Z,1.73
2022-11-20T23:35:54.246Z,1.95
2022-11-20T23:38:20.765Z,2.00
2022-11-20T23:40:48.816Z,1.95
2022-11-20T23:43:16.435Z,1.95
2022-11-20T23:45:44.816Z,2.08
2022-11-20T23:48:11.415Z,1.95
2022-11-20T23:50:37.950Z,1.98
2022-11-20T23:53:05.098Z,2.08
2022-11-20T23:55:32.036Z,1.80
2022-11-20T23:57:58.521Z,1.77
